MSR677 HECA-OEMA
Flight info
| Callsign | MSR677 |
|---|---|
| Flight time | N/A |
| Altitude | 35000 |
| Route | CVO L315 HGD M872 BOVET |
| Aircraft | B38M/M-SDE1FGHILORVWXY/HB1 |
Departure
| Time | 2026-04-29 22:55 |
|---|---|
| Airport | Cairo International Airport (HECA) |
Arrival
| Time | N/A |
|---|---|
| Airport | Prince Mohammad Bin Abdulaziz Airport (OEMA) |
| Time | Latitude | Longitude | Altitude | Speed | Heading |
|---|---|---|---|---|---|
| 2026-04-29 22:25 | 30.10335 | 31.39124 | 386 ft | 0 kts | 255° |
| 2026-04-29 22:43 | 30.10335 | 31.39125 | 386 ft | 0 kts | 255° |
| 2026-04-29 22:43 | 30.10339 | 31.39143 | 386 ft | 2 kts | 255° |
| 2026-04-29 22:44 | 30.10343 | 31.39157 | 386 ft | 2 kts | 255° |
| 2026-04-29 22:44 | 30.10343 | 31.39174 | 386 ft | 2 kts | 284° |
| 2026-04-29 22:44 | 30.10335 | 31.39193 | 386 ft | 2 kts | 314° |
| 2026-04-29 22:44 | 30.10324 | 31.39202 | 386 ft | 2 kts | 335° |
| 2026-04-29 22:45 | 30.10318 | 31.39205 | 386 ft | 1 kts | 348° |
| 2026-04-29 22:45 | 30.10313 | 31.39206 | 386 ft | 0 kts | 345° |
| 2026-04-29 22:49 | 30.10317 | 31.39205 | 386 ft | 0 kts | 345° |
| 2026-04-29 22:49 | 30.10325 | 31.39203 | 385 ft | 1 kts | 346° |
| 2026-04-29 22:49 | 30.10338 | 31.39198 | 386 ft | 2 kts | 346° |
| 2026-04-29 22:50 | 30.10353 | 31.39194 | 386 ft | 3 kts | 347° |
| 2026-04-29 22:50 | 30.10402 | 31.39193 | 386 ft | 13 kts | 14° |
| 2026-04-29 22:50 | 30.10457 | 31.39306 | 386 ft | 15 kts | 75° |
| 2026-04-29 22:50 | 30.10483 | 31.39414 | 386 ft | 13 kts | 75° |
| 2026-04-29 22:51 | 30.10502 | 31.39499 | 386 ft | 12 kts | 76° |
| 2026-04-29 22:51 | 30.10526 | 31.39602 | 386 ft | 11 kts | 73° |
| 2026-04-29 22:51 | 30.10532 | 31.39732 | 386 ft | 7 kts | 129° |
| 2026-04-29 22:52 | 30.10469 | 31.39768 | 386 ft | 9 kts | 163° |
| 2026-04-29 22:52 | 30.10417 | 31.39783 | 386 ft | 7 kts | 168° |
| 2026-04-29 22:52 | 30.10374 | 31.39786 | 386 ft | 10 kts | 191° |
| 2026-04-29 22:52 | 30.10274 | 31.39683 | 386 ft | 19 kts | 229° |
| 2026-04-29 22:53 | 30.10170 | 31.39575 | 386 ft | 16 kts | 190° |
| 2026-04-29 22:53 | 30.10093 | 31.39619 | 386 ft | 14 kts | 142° |
| 2026-04-29 22:53 | 30.10018 | 31.39690 | 386 ft | 12 kts | 135° |
| 2026-04-29 22:53 | 30.10001 | 31.39792 | 386 ft | 15 kts | 81° |
| 2026-04-29 22:54 | 30.10026 | 31.39898 | 386 ft | 22 kts | 60° |
| 2026-04-29 22:54 | 30.10155 | 31.40074 | 386 ft | 44 kts | 48° |
| 2026-04-29 22:54 | 30.10611 | 31.40677 | 386 ft | 125 kts | 48° |
| 2026-04-29 22:54 | 30.11130 | 31.41377 | 449 ft | 166 kts | 49° |
| 2026-04-29 22:55 | 30.11666 | 31.42168 | 957 ft | 176 kts | 56° |
| 2026-04-29 22:55 | 30.11402 | 31.45625 | 2839 ft | 205 kts | 121° |
| 2026-04-29 22:55 | 30.10628 | 31.46531 | 3234 ft | 221 kts | 143° |
| 2026-04-29 22:56 | 30.06236 | 31.49671 | 5021 ft | 270 kts | 145° |
| 2026-04-29 22:56 | 30.05219 | 31.50485 | 5345 ft | 283 kts | 144° |
| 2026-04-29 22:57 | 30.02685 | 31.52560 | 6759 ft | 287 kts | 145° |
| 2026-04-29 22:57 | 30.01317 | 31.53680 | 7447 ft | 292 kts | 145° |